Terminal Aerodrome Forecast
Issued by NWS

Home | Current Version | Previous Version | Text Only | Print | Product List | Glossary On
Versions: 1 2 3 4 5 6 7 8 9 10 11 12 13 14 15
000
FTUS42 KMLB 171300 AAA
TAFFPR
TAF AMD
KFPR 171321Z 1713/1812 07010G20KT P6SM FEW019 OVC040
      TEMPO 1713/1715 5SM SHRA BKN020 OVC030
     FM171500 07010G18KT P6SM SHRA BKN030 OVC050
     FM180000 08009KT P6SM VCSH SCT020 BKN030 OVC040=

USA.gov is the U.S. government's official web portal to all federal, state and local government web resources and services.